sensor_id;sensor_type;location;lat;lon;timestamp;P1;durP1;ratioP1;P2;durP2;ratioP2
5650;SDS011;40241;52.684;9.758;2022-08-19T00:01:20;2.90;;;2.70;;
5650;SDS011;40241;52.684;9.758;2022-08-19T00:03:46;4.30;;;3.20;;
5650;SDS011;40241;52.684;9.758;2022-08-19T00:06:12;3.40;;;3.10;;
5650;SDS011;40241;52.684;9.758;2022-08-19T00:08:38;4.00;;;3.70;;
5650;SDS011;40241;52.684;9.758;2022-08-19T00:11:04;3.63;;;3.33;;
5650;SDS011;40241;52.684;9.758;2022-08-19T00:13:30;3.53;;;3.23;;
5650;SDS011;40241;52.684;9.758;2022-08-19T00:15:56;3.80;;;3.50;;
5650;SDS011;40241;52.684;9.758;2022-08-19T00:18:22;2.80;;;2.70;;
5650;SDS011;40241;52.684;9.758;2022-08-19T00:20:47;3.63;;;2.70;;
5650;SDS011;40241;52.684;9.758;2022-08-19T00:23:13;4.00;;;3.67;;
5650;SDS011;40241;52.684;9.758;2022-08-19T00:25:38;3.30;;;3.07;;
5650;SDS011;40241;52.684;9.758;2022-08-19T00:28:04;3.60;;;3.30;;
5650;SDS011;40241;52.684;9.758;2022-08-19T00:30:29;3.60;;;3.30;;
5650;SDS011;40241;52.684;9.758;2022-08-19T00:32:55;3.00;;;2.80;;
5650;SDS011;40241;52.684;9.758;2022-08-19T00:35:21;3.07;;;2.87;;
5650;SDS011;40241;52.684;9.758;2022-08-19T00:37:48;3.80;;;3.50;;
5650;SDS011;40241;52.684;9.758;2022-08-19T00:40:14;6.87;;;3.27;;
5650;SDS011;40241;52.684;9.758;2022-08-19T00:42:40;3.10;;;2.90;;
5650;SDS011;40241;52.684;9.758;2022-08-19T00:45:11;5.90;;;2.80;;
5650;SDS011;40241;52.684;9.758;2022-08-19T00:47:40;3.40;;;3.00;;
5650;SDS011;40241;52.684;9.758;2022-08-19T00:50:05;3.17;;;2.77;;
5650;SDS011;40241;52.684;9.758;2022-08-19T00:52:33;3.10;;;2.90;;
5650;SDS011;40241;52.684;9.758;2022-08-19T00:55:03;3.03;;;2.73;;
5650;SDS011;40241;52.684;9.758;2022-08-19T00:57:35;4.77;;;2.70;;
5650;SDS011;40241;52.684;9.758;2022-08-19T01:00:04;2.97;;;2.63;;
5650;SDS011;40241;52.684;9.758;2022-08-19T01:02:32;3.10;;;2.80;;
5650;SDS011;40241;52.684;9.758;2022-08-19T01:04:58;3.00;;;2.77;;
5650;SDS011;40241;52.684;9.758;2022-08-19T01:07:26;2.80;;;2.60;;
5650;SDS011;40241;52.684;9.758;2022-08-19T01:09:52;2.87;;;2.67;;
5650;SDS011;40241;52.684;9.758;2022-08-19T01:12:17;2.70;;;2.50;;
5650;SDS011;40241;52.684;9.758;2022-08-19T01:14:43;3.10;;;2.90;;
5650;SDS011;40241;52.684;9.758;2022-08-19T01:17:10;2.83;;;2.63;;
5650;SDS011;40241;52.684;9.758;2022-08-19T01:19:37;3.43;;;3.13;;
5650;SDS011;40241;52.684;9.758;2022-08-19T01:22:12;3.60;;;3.10;;
5650;SDS011;40241;52.684;9.758;2022-08-19T01:24:39;2.90;;;2.70;;
5650;SDS011;40241;52.684;9.758;2022-08-19T01:27:06;3.10;;;2.80;;
5650;SDS011;40241;52.684;9.758;2022-08-19T01:29:32;4.40;;;2.60;;
5650;SDS011;40241;52.684;9.758;2022-08-19T01:31:58;3.27;;;2.97;;
5650;SDS011;40241;52.684;9.758;2022-08-19T01:34:25;3.40;;;3.20;;
5650;SDS011;40241;52.684;9.758;2022-08-19T01:36:50;3.03;;;2.77;;
5650;SDS011;40241;52.684;9.758;2022-08-19T01:39:17;3.20;;;2.90;;
5650;SDS011;40241;52.684;9.758;2022-08-19T01:41:49;2.90;;;2.70;;
5650;SDS011;40241;52.684;9.758;2022-08-19T01:44:17;2.90;;;2.70;;
5650;SDS011;40241;52.684;9.758;2022-08-19T01:46:46;3.00;;;2.80;;
5650;SDS011;40241;52.684;9.758;2022-08-19T01:49:12;3.60;;;2.87;;
5650;SDS011;40241;52.684;9.758;2022-08-19T01:51:38;2.70;;;2.60;;
5650;SDS011;40241;52.684;9.758;2022-08-19T01:54:03;2.53;;;2.33;;
5650;SDS011;40241;52.684;9.758;2022-08-19T01:56:29;2.40;;;2.30;;
5650;SDS011;40241;52.684;9.758;2022-08-19T01:58:58;2.77;;;2.67;;
5650;SDS011;40241;52.684;9.758;2022-08-19T02:01:27;2.90;;;2.70;;
5650;SDS011;40241;52.684;9.758;2022-08-19T02:03:56;3.27;;;3.03;;
5650;SDS011;40241;52.684;9.758;2022-08-19T02:06:22;3.40;;;3.10;;
5650;SDS011;40241;52.684;9.758;2022-08-19T02:08:47;3.40;;;2.73;;
5650;SDS011;40241;52.684;9.758;2022-08-19T02:11:21;3.13;;;2.67;;
5650;SDS011;40241;52.684;9.758;2022-08-19T02:13:51;3.27;;;3.00;;
5650;SDS011;40241;52.684;9.758;2022-08-19T02:16:18;2.70;;;2.50;;
5650;SDS011;40241;52.684;9.758;2022-08-19T02:18:44;3.10;;;2.80;;
5650;SDS011;40241;52.684;9.758;2022-08-19T02:21:14;2.80;;;2.57;;
5650;SDS011;40241;52.684;9.758;2022-08-19T02:23:40;2.73;;;2.53;;
5650;SDS011;40241;52.684;9.758;2022-08-19T02:26:06;2.97;;;2.77;;
5650;SDS011;40241;52.684;9.758;2022-08-19T02:28:32;2.77;;;2.57;;
5650;SDS011;40241;52.684;9.758;2022-08-19T02:30:58;5.10;;;3.00;;
5650;SDS011;40241;52.684;9.758;2022-08-19T02:33:25;3.53;;;2.93;;
5650;SDS011;40241;52.684;9.758;2022-08-19T02:35:51;3.37;;;2.40;;
5650;SDS011;40241;52.684;9.758;2022-08-19T02:38:16;2.73;;;2.53;;
5650;SDS011;40241;52.684;9.758;2022-08-19T02:41:00;3.20;;;3.00;;
5650;SDS011;40241;52.684;9.758;2022-08-19T02:43:29;2.33;;;2.23;;
5650;SDS011;40241;52.684;9.758;2022-08-19T02:45:56;2.83;;;2.63;;
5650;SDS011;40241;52.684;9.758;2022-08-19T02:48:23;2.33;;;2.23;;
5650;SDS011;40241;52.684;9.758;2022-08-19T02:50:50;2.70;;;2.50;;
5650;SDS011;40241;52.684;9.758;2022-08-19T02:53:20;2.90;;;2.70;;
5650;SDS011;40241;52.684;9.758;2022-08-19T02:55:47;2.80;;;2.60;;
5650;SDS011;40241;52.684;9.758;2022-08-19T02:58:13;4.40;;;2.83;;
5650;SDS011;40241;52.684;9.758;2022-08-19T03:00:44;4.07;;;3.40;;
5650;SDS011;40241;52.684;9.758;2022-08-19T03:03:15;4.00;;;3.53;;
5650;SDS011;40241;52.684;9.758;2022-08-19T03:05:41;3.03;;;2.83;;
5650;SDS011;40241;52.684;9.758;2022-08-19T03:08:08;3.03;;;2.87;;
5650;SDS011;40241;52.684;9.758;2022-08-19T03:10:41;3.57;;;3.17;;
5650;SDS011;40241;52.684;9.758;2022-08-19T03:13:14;3.30;;;3.10;;
5650;SDS011;40241;52.684;9.758;2022-08-19T03:15:42;4.30;;;3.13;;
5650;SDS011;40241;52.684;9.758;2022-08-19T03:18:09;3.13;;;2.93;;
5650;SDS011;40241;52.684;9.758;2022-08-19T03:20:46;2.93;;;2.70;;
5650;SDS011;40241;52.684;9.758;2022-08-19T03:23:16;3.50;;;3.20;;
5650;SDS011;40241;52.684;9.758;2022-08-19T03:25:43;3.77;;;3.23;;
5650;SDS011;40241;52.684;9.758;2022-08-19T03:28:11;3.27;;;3.07;;
5650;SDS011;40241;52.684;9.758;2022-08-19T03:30:38;3.40;;;3.20;;
5650;SDS011;40241;52.684;9.758;2022-08-19T03:33:06;3.77;;;3.47;;
5650;SDS011;40241;52.684;9.758;2022-08-19T03:35:32;2.97;;;2.67;;
5650;SDS011;40241;52.684;9.758;2022-08-19T03:37:58;3.40;;;3.20;;
5650;SDS011;40241;52.684;9.758;2022-08-19T03:40:24;3.30;;;3.00;;
5650;SDS011;40241;52.684;9.758;2022-08-19T03:42:50;2.83;;;2.63;;
5650;SDS011;40241;52.684;9.758;2022-08-19T03:45:15;2.93;;;2.73;;
5650;SDS011;40241;52.684;9.758;2022-08-19T03:47:41;3.60;;;3.23;;
5650;SDS011;40241;52.684;9.758;2022-08-19T03:50:06;2.90;;;2.70;;
5650;SDS011;40241;52.684;9.758;2022-08-19T03:52:33;3.53;;;3.23;;
5650;SDS011;40241;52.684;9.758;2022-08-19T03:54:58;5.07;;;3.30;;
5650;SDS011;40241;52.684;9.758;2022-08-19T03:57:24;2.97;;;2.73;;
5650;SDS011;40241;52.684;9.758;2022-08-19T03:59:49;2.80;;;2.60;;
5650;SDS011;40241;52.684;9.758;2022-08-19T04:02:15;4.33;;;3.87;;
5650;SDS011;40241;52.684;9.758;2022-08-19T04:04:41;3.10;;;2.90;;
5650;SDS011;40241;52.684;9.758;2022-08-19T04:07:08;3.50;;;2.80;;
5650;SDS011;40241;52.684;9.758;2022-08-19T04:09:35;2.80;;;2.60;;
5650;SDS011;40241;52.684;9.758;2022-08-19T04:12:01;3.10;;;2.90;;
5650;SDS011;40241;52.684;9.758;2022-08-19T04:14:28;2.80;;;2.60;;
5650;SDS011;40241;52.684;9.758;2022-08-19T04:16:55;4.93;;;2.60;;
5650;SDS011;40241;52.684;9.758;2022-08-19T04:19:21;3.20;;;3.00;;
5650;SDS011;40241;52.684;9.758;2022-08-19T04:21:49;3.27;;;2.97;;
5650;SDS011;40241;52.684;9.758;2022-08-19T04:24:15;3.60;;;3.00;;
5650;SDS011;40241;52.684;9.758;2022-08-19T04:26:41;3.43;;;3.17;;
5650;SDS011;40241;52.684;9.758;2022-08-19T04:29:09;3.30;;;3.10;;
5650;SDS011;40241;52.684;9.758;2022-08-19T04:31:39;2.57;;;2.37;;
5650;SDS011;40241;52.684;9.758;2022-08-19T04:34:08;3.30;;;3.00;;
5650;SDS011;40241;52.684;9.758;2022-08-19T04:36:39;2.57;;;2.37;;
5650;SDS011;40241;52.684;9.758;2022-08-19T04:39:11;6.20;;;2.50;;
5650;SDS011;40241;52.684;9.758;2022-08-19T04:41:38;3.00;;;2.90;;
5650;SDS011;40241;52.684;9.758;2022-08-19T04:44:22;4.40;;;3.00;;
5650;SDS011;40241;52.684;9.758;2022-08-19T04:46:48;6.13;;;2.93;;
5650;SDS011;40241;52.684;9.758;2022-08-19T04:49:15;4.03;;;3.33;;
5650;SDS011;40241;52.684;9.758;2022-08-19T04:51:43;3.77;;;3.10;;
5650;SDS011;40241;52.684;9.758;2022-08-19T04:54:11;5.57;;;3.40;;
5650;SDS011;40241;52.684;9.758;2022-08-19T04:56:38;2.60;;;2.50;;
5650;SDS011;40241;52.684;9.758;2022-08-19T04:59:04;3.37;;;3.07;;
5650;SDS011;40241;52.684;9.758;2022-08-19T05:01:30;3.10;;;2.90;;
5650;SDS011;40241;52.684;9.758;2022-08-19T05:03:58;4.20;;;3.00;;
5650;SDS011;40241;52.684;9.758;2022-08-19T05:06:25;2.90;;;2.70;;
5650;SDS011;40241;52.684;9.758;2022-08-19T05:08:53;2.73;;;2.53;;
5650;SDS011;40241;52.684;9.758;2022-08-19T05:11:20;4.13;;;3.47;;
5650;SDS011;40241;52.684;9.758;2022-08-19T05:13:49;3.50;;;3.30;;
5650;SDS011;40241;52.684;9.758;2022-08-19T05:16:15;3.97;;;3.67;;
5650;SDS011;40241;52.684;9.758;2022-08-19T05:18:42;3.50;;;3.30;;
5650;SDS011;40241;52.684;9.758;2022-08-19T05:21:28;3.27;;;3.07;;
5650;SDS011;40241;52.684;9.758;2022-08-19T05:24:12;3.37;;;2.97;;
5650;SDS011;40241;52.684;9.758;2022-08-19T05:26:39;3.43;;;3.10;;
5650;SDS011;40241;52.684;9.758;2022-08-19T05:29:06;3.40;;;3.10;;
5650;SDS011;40241;52.684;9.758;2022-08-19T05:31:33;3.40;;;3.10;;
5650;SDS011;40241;52.684;9.758;2022-08-19T05:34:00;3.77;;;3.53;;
5650;SDS011;40241;52.684;9.758;2022-08-19T05:36:26;3.00;;;2.80;;
5650;SDS011;40241;52.684;9.758;2022-08-19T05:38:53;4.90;;;3.50;;
5650;SDS011;40241;52.684;9.758;2022-08-19T05:41:19;2.83;;;2.70;;
5650;SDS011;40241;52.684;9.758;2022-08-19T05:43:45;3.73;;;3.50;;
5650;SDS011;40241;52.684;9.758;2022-08-19T05:46:18;4.53;;;3.17;;
5650;SDS011;40241;52.684;9.758;2022-08-19T05:48:44;3.40;;;3.20;;
5650;SDS011;40241;52.684;9.758;2022-08-19T05:51:10;3.70;;;3.33;;
5650;SDS011;40241;52.684;9.758;2022-08-19T05:53:36;3.30;;;3.10;;
5650;SDS011;40241;52.684;9.758;2022-08-19T05:56:05;3.33;;;3.00;;
5650;SDS011;40241;52.684;9.758;2022-08-19T05:58:32;4.80;;;3.20;;
5650;SDS011;40241;52.684;9.758;2022-08-19T06:00:58;3.40;;;3.10;;
5650;SDS011;40241;52.684;9.758;2022-08-19T06:03:29;5.73;;;2.80;;
5650;SDS011;40241;52.684;9.758;2022-08-19T06:05:55;3.73;;;3.00;;
5650;SDS011;40241;52.684;9.758;2022-08-19T06:08:21;6.43;;;3.23;;
5650;SDS011;40241;52.684;9.758;2022-08-19T06:10:46;3.50;;;3.20;;
5650;SDS011;40241;52.684;9.758;2022-08-19T06:13:11;5.77;;;3.03;;
5650;SDS011;40241;52.684;9.758;2022-08-19T06:15:37;2.80;;;2.60;;
5650;SDS011;40241;52.684;9.758;2022-08-19T06:18:02;4.37;;;3.43;;
5650;SDS011;40241;52.684;9.758;2022-08-19T06:20:28;5.13;;;3.40;;
5650;SDS011;40241;52.684;9.758;2022-08-19T06:22:54;3.30;;;2.90;;
5650;SDS011;40241;52.684;9.758;2022-08-19T06:25:20;3.53;;;3.13;;
5650;SDS011;40241;52.684;9.758;2022-08-19T06:27:45;3.23;;;3.03;;
5650;SDS011;40241;52.684;9.758;2022-08-19T06:30:11;2.80;;;2.60;;
5650;SDS011;40241;52.684;9.758;2022-08-19T06:32:37;3.20;;;2.97;;
5650;SDS011;40241;52.684;9.758;2022-08-19T06:35:03;2.50;;;2.30;;
5650;SDS011;40241;52.684;9.758;2022-08-19T06:37:29;3.13;;;2.93;;
5650;SDS011;40241;52.684;9.758;2022-08-19T06:39:54;3.30;;;2.97;;
5650;SDS011;40241;52.684;9.758;2022-08-19T06:42:20;2.67;;;2.50;;
5650;SDS011;40241;52.684;9.758;2022-08-19T06:44:46;3.07;;;2.77;;
5650;SDS011;40241;52.684;9.758;2022-08-19T06:47:15;2.50;;;2.40;;
5650;SDS011;40241;52.684;9.758;2022-08-19T06:49:44;2.47;;;2.27;;
5650;SDS011;40241;52.684;9.758;2022-08-19T06:52:10;2.90;;;2.70;;
5650;SDS011;40241;52.684;9.758;2022-08-19T06:54:37;3.37;;;2.70;;
5650;SDS011;40241;52.684;9.758;2022-08-19T06:57:04;4.00;;;3.20;;
5650;SDS011;40241;52.684;9.758;2022-08-19T06:59:31;2.77;;;2.40;;
5650;SDS011;40241;52.684;9.758;2022-08-19T07:01:58;2.40;;;2.30;;
5650;SDS011;40241;52.684;9.758;2022-08-19T07:04:26;2.33;;;2.23;;
5650;SDS011;40241;52.684;9.758;2022-08-19T07:07:12;2.37;;;2.27;;
5650;SDS011;40241;52.684;9.758;2022-08-19T07:09:41;2.60;;;2.40;;
5650;SDS011;40241;52.684;9.758;2022-08-19T07:12:09;2.30;;;2.10;;
5650;SDS011;40241;52.684;9.758;2022-08-19T07:14:38;2.17;;;2.07;;
5650;SDS011;40241;52.684;9.758;2022-08-19T07:17:05;2.63;;;2.47;;
5650;SDS011;40241;52.684;9.758;2022-08-19T07:19:33;2.30;;;2.20;;
5650;SDS011;40241;52.684;9.758;2022-08-19T07:22:00;2.63;;;2.40;;
5650;SDS011;40241;52.684;9.758;2022-08-19T07:24:28;2.97;;;2.63;;
5650;SDS011;40241;52.684;9.758;2022-08-19T07:26:54;2.43;;;2.30;;
5650;SDS011;40241;52.684;9.758;2022-08-19T07:29:24;2.10;;;2.00;;
5650;SDS011;40241;52.684;9.758;2022-08-19T07:31:50;2.80;;;2.60;;
5650;SDS011;40241;52.684;9.758;2022-08-19T07:34:17;3.57;;;2.40;;
5650;SDS011;40241;52.684;9.758;2022-08-19T07:36:43;2.47;;;2.37;;
5650;SDS011;40241;52.684;9.758;2022-08-19T07:39:13;2.80;;;2.50;;
5650;SDS011;40241;52.684;9.758;2022-08-19T07:41:40;2.30;;;2.20;;
5650;SDS011;40241;52.684;9.758;2022-08-19T07:44:06;2.67;;;2.47;;
5650;SDS011;40241;52.684;9.758;2022-08-19T07:46:33;2.50;;;2.40;;
5650;SDS011;40241;52.684;9.758;2022-08-19T07:49:00;3.23;;;2.60;;
5650;SDS011;40241;52.684;9.758;2022-08-19T07:51:27;2.20;;;2.07;;
5650;SDS011;40241;52.684;9.758;2022-08-19T07:53:54;3.03;;;2.73;;
5650;SDS011;40241;52.684;9.758;2022-08-19T07:56:20;3.60;;;3.00;;
5650;SDS011;40241;52.684;9.758;2022-08-19T07:58:47;3.27;;;2.90;;
5650;SDS011;40241;52.684;9.758;2022-08-19T08:01:24;2.33;;;2.23;;
5650;SDS011;40241;52.684;9.758;2022-08-19T08:03:51;3.03;;;2.83;;
5650;SDS011;40241;52.684;9.758;2022-08-19T08:06:36;3.60;;;3.20;;
5650;SDS011;40241;52.684;9.758;2022-08-19T08:09:26;3.93;;;2.73;;
5650;SDS011;40241;52.684;9.758;2022-08-19T08:11:55;3.17;;;2.97;;
5650;SDS011;40241;52.684;9.758;2022-08-19T08:14:33;3.23;;;2.93;;
5650;SDS011;40241;52.684;9.758;2022-08-19T08:17:01;2.60;;;2.40;;
5650;SDS011;40241;52.684;9.758;2022-08-19T08:19:28;3.33;;;3.13;;
5650;SDS011;40241;52.684;9.758;2022-08-19T08:21:54;7.70;;;3.17;;
5650;SDS011;40241;52.684;9.758;2022-08-19T08:24:21;3.33;;;3.13;;
5650;SDS011;40241;52.684;9.758;2022-08-19T08:26:47;5.40;;;3.47;;
5650;SDS011;40241;52.684;9.758;2022-08-19T08:29:13;2.97;;;2.77;;
5650;SDS011;40241;52.684;9.758;2022-08-19T08:31:40;2.50;;;2.30;;
5650;SDS011;40241;52.684;9.758;2022-08-19T08:34:08;3.17;;;2.97;;
5650;SDS011;40241;52.684;9.758;2022-08-19T08:36:38;2.93;;;2.77;;
5650;SDS011;40241;52.684;9.758;2022-08-19T08:39:06;2.23;;;2.13;;
5650;SDS011;40241;52.684;9.758;2022-08-19T08:44:20;2.30;;;2.10;;
5650;SDS011;40241;52.684;9.758;2022-08-19T08:46:49;2.50;;;2.33;;
5650;SDS011;40241;52.684;9.758;2022-08-19T08:51:54;2.40;;;2.20;;
5650;SDS011;40241;52.684;9.758;2022-08-19T08:54:44;1.87;;;1.77;;
5650;SDS011;40241;52.684;9.758;2022-08-19T08:57:17;2.17;;;2.07;;
5650;SDS011;40241;52.684;9.758;2022-08-19T08:59:51;2.17;;;2.07;;
5650;SDS011;40241;52.684;9.758;2022-08-19T09:02:19;2.53;;;2.37;;
5650;SDS011;40241;52.684;9.758;2022-08-19T09:04:45;2.10;;;2.00;;
5650;SDS011;40241;52.684;9.758;2022-08-19T09:07:18;1.90;;;1.80;;
5650;SDS011;40241;52.684;9.758;2022-08-19T09:09:54;2.30;;;2.13;;
5650;SDS011;40241;52.684;9.758;2022-08-19T09:15:54;2.63;;;2.00;;
5650;SDS011;40241;52.684;9.758;2022-08-19T09:18:25;2.00;;;1.90;;
5650;SDS011;40241;52.684;9.758;2022-08-19T09:21:03;2.10;;;1.97;;
5650;SDS011;40241;52.684;9.758;2022-08-19T09:23:28;2.43;;;2.20;;
5650;SDS011;40241;52.684;9.758;2022-08-19T09:25:53;1.80;;;1.70;;
5650;SDS011;40241;52.684;9.758;2022-08-19T09:28:19;2.13;;;2.03;;
5650;SDS011;40241;52.684;9.758;2022-08-19T09:30:44;2.07;;;1.97;;
5650;SDS011;40241;52.684;9.758;2022-08-19T09:33:09;2.33;;;2.23;;
5650;SDS011;40241;52.684;9.758;2022-08-19T09:35:35;2.00;;;1.90;;
5650;SDS011;40241;52.684;9.758;2022-08-19T09:38:00;4.30;;;2.33;;
5650;SDS011;40241;52.684;9.758;2022-08-19T09:40:27;2.17;;;2.07;;
5650;SDS011;40241;52.684;9.758;2022-08-19T09:42:53;2.10;;;2.00;;
5650;SDS011;40241;52.684;9.758;2022-08-19T09:45:20;1.97;;;1.77;;
5650;SDS011;40241;52.684;9.758;2022-08-19T09:47:46;2.30;;;2.20;;
5650;SDS011;40241;52.684;9.758;2022-08-19T09:50:13;2.20;;;2.10;;
5650;SDS011;40241;52.684;9.758;2022-08-19T09:52:39;2.20;;;2.10;;
5650;SDS011;40241;52.684;9.758;2022-08-19T09:55:07;2.90;;;2.70;;
5650;SDS011;40241;52.684;9.758;2022-08-19T09:57:34;2.00;;;1.90;;
5650;SDS011;40241;52.684;9.758;2022-08-19T10:00:00;1.90;;;1.80;;
5650;SDS011;40241;52.684;9.758;2022-08-19T10:02:26;2.63;;;2.07;;
5650;SDS011;40241;52.684;9.758;2022-08-19T10:04:52;2.50;;;2.30;;
5650;SDS011;40241;52.684;9.758;2022-08-19T10:07:36;2.17;;;2.07;;
5650;SDS011;40241;52.684;9.758;2022-08-19T10:10:03;4.30;;;2.83;;
5650;SDS011;40241;52.684;9.758;2022-08-19T10:12:30;2.10;;;2.00;;
5650;SDS011;40241;52.684;9.758;2022-08-19T10:14:55;2.37;;;2.27;;
5650;SDS011;40241;52.684;9.758;2022-08-19T10:17:21;2.43;;;2.30;;
5650;SDS011;40241;52.684;9.758;2022-08-19T10:19:46;1.90;;;1.80;;
5650;SDS011;40241;52.684;9.758;2022-08-19T10:22:12;1.60;;;1.50;;
5650;SDS011;40241;52.684;9.758;2022-08-19T10:24:38;4.83;;;2.30;;
5650;SDS011;40241;52.684;9.758;2022-08-19T10:27:04;3.70;;;2.20;;
5650;SDS011;40241;52.684;9.758;2022-08-19T10:29:31;3.40;;;2.47;;
5650;SDS011;40241;52.684;9.758;2022-08-19T10:32:00;2.37;;;2.27;;
5650;SDS011;40241;52.684;9.758;2022-08-19T10:34:26;2.10;;;2.00;;
5650;SDS011;40241;52.684;9.758;2022-08-19T10:36:53;2.20;;;2.10;;
5650;SDS011;40241;52.684;9.758;2022-08-19T10:39:18;2.20;;;2.10;;
5650;SDS011;40241;52.684;9.758;2022-08-19T10:41:43;2.17;;;2.03;;
5650;SDS011;40241;52.684;9.758;2022-08-19T10:44:10;2.37;;;2.27;;
5650;SDS011;40241;52.684;9.758;2022-08-19T10:46:37;2.30;;;2.20;;
5650;SDS011;40241;52.684;9.758;2022-08-19T10:49:06;2.20;;;2.10;;
5650;SDS011;40241;52.684;9.758;2022-08-19T10:51:33;3.07;;;2.80;;
5650;SDS011;40241;52.684;9.758;2022-08-19T10:54:17;2.40;;;2.20;;
5650;SDS011;40241;52.684;9.758;2022-08-19T10:56:43;2.20;;;2.10;;
5650;SDS011;40241;52.684;9.758;2022-08-19T10:59:22;2.10;;;2.00;;
5650;SDS011;40241;52.684;9.758;2022-08-19T11:01:52;2.33;;;2.23;;
5650;SDS011;40241;52.684;9.758;2022-08-19T11:04:20;2.23;;;2.13;;
5650;SDS011;40241;52.684;9.758;2022-08-19T11:06:47;2.53;;;2.40;;
5650;SDS011;40241;52.684;9.758;2022-08-19T11:09:14;2.10;;;2.00;;
5650;SDS011;40241;52.684;9.758;2022-08-19T11:11:41;3.93;;;2.73;;
5650;SDS011;40241;52.684;9.758;2022-08-19T11:14:08;2.43;;;2.33;;
5650;SDS011;40241;52.684;9.758;2022-08-19T11:16:35;2.50;;;2.30;;
5650;SDS011;40241;52.684;9.758;2022-08-19T11:19:02;2.60;;;2.40;;
5650;SDS011;40241;52.684;9.758;2022-08-19T11:21:29;2.43;;;2.33;;
5650;SDS011;40241;52.684;9.758;2022-08-19T11:23:57;2.23;;;2.13;;
5650;SDS011;40241;52.684;9.758;2022-08-19T11:26:24;2.37;;;2.27;;
5650;SDS011;40241;52.684;9.758;2022-08-19T11:28:50;2.67;;;2.53;;
5650;SDS011;40241;52.684;9.758;2022-08-19T11:31:19;2.70;;;2.50;;
5650;SDS011;40241;52.684;9.758;2022-08-19T11:33:46;2.47;;;2.30;;
5650;SDS011;40241;52.684;9.758;2022-08-19T11:36:15;2.53;;;2.37;;
5650;SDS011;40241;52.684;9.758;2022-08-19T11:38:41;1.70;;;1.60;;
5650;SDS011;40241;52.684;9.758;2022-08-19T11:41:07;2.50;;;2.40;;
5650;SDS011;40241;52.684;9.758;2022-08-19T11:43:33;2.70;;;2.60;;
5650;SDS011;40241;52.684;9.758;2022-08-19T11:45:59;2.83;;;2.63;;
5650;SDS011;40241;52.684;9.758;2022-08-19T11:48:28;1.83;;;1.73;;
5650;SDS011;40241;52.684;9.758;2022-08-19T11:50:53;2.60;;;2.40;;
5650;SDS011;40241;52.684;9.758;2022-08-19T11:53:22;2.33;;;2.23;;
5650;SDS011;40241;52.684;9.758;2022-08-19T11:55:48;2.07;;;1.97;;
5650;SDS011;40241;52.684;9.758;2022-08-19T11:58:15;2.00;;;1.90;;
5650;SDS011;40241;52.684;9.758;2022-08-19T12:00:42;1.87;;;1.77;;
5650;SDS011;40241;52.684;9.758;2022-08-19T12:03:10;2.20;;;2.10;;
5650;SDS011;40241;52.684;9.758;2022-08-19T12:05:37;2.80;;;2.60;;
5650;SDS011;40241;52.684;9.758;2022-08-19T12:08:04;2.33;;;2.23;;
5650;SDS011;40241;52.684;9.758;2022-08-19T12:10:30;2.50;;;2.30;;
5650;SDS011;40241;52.684;9.758;2022-08-19T12:12:55;1.90;;;1.80;;
5650;SDS011;40241;52.684;9.758;2022-08-19T12:15:20;2.33;;;2.23;;
5650;SDS011;40241;52.684;9.758;2022-08-19T12:17:46;2.47;;;2.00;;
5650;SDS011;40241;52.684;9.758;2022-08-19T12:20:12;1.83;;;1.73;;
5650;SDS011;40241;52.684;9.758;2022-08-19T12:22:40;1.93;;;1.83;;
5650;SDS011;40241;52.684;9.758;2022-08-19T12:25:09;2.20;;;2.10;;
5650;SDS011;40241;52.684;9.758;2022-08-19T12:27:35;1.90;;;1.80;;
5650;SDS011;40241;52.684;9.758;2022-08-19T12:30:02;1.80;;;1.70;;
5650;SDS011;40241;52.684;9.758;2022-08-19T12:32:28;2.07;;;1.97;;
5650;SDS011;40241;52.684;9.758;2022-08-19T12:34:53;1.57;;;1.47;;
5650;SDS011;40241;52.684;9.758;2022-08-19T12:37:19;1.77;;;1.67;;
5650;SDS011;40241;52.684;9.758;2022-08-19T12:39:44;2.43;;;2.23;;
5650;SDS011;40241;52.684;9.758;2022-08-19T12:42:11;1.57;;;1.50;;
5650;SDS011;40241;52.684;9.758;2022-08-19T12:44:38;2.10;;;2.00;;
5650;SDS011;40241;52.684;9.758;2022-08-19T12:47:04;1.87;;;1.77;;
5650;SDS011;40241;52.684;9.758;2022-08-19T12:49:30;1.77;;;1.53;;
5650;SDS011;40241;52.684;9.758;2022-08-19T12:51:58;1.87;;;1.77;;
5650;SDS011;40241;52.684;9.758;2022-08-19T12:54:25;1.80;;;1.70;;
5650;SDS011;40241;52.684;9.758;2022-08-19T12:56:51;1.57;;;1.47;;
5650;SDS011;40241;52.684;9.758;2022-08-19T12:59:16;2.13;;;2.00;;
5650;SDS011;40241;52.684;9.758;2022-08-19T13:01:44;2.00;;;1.90;;
5650;SDS011;40241;52.684;9.758;2022-08-19T13:04:10;2.07;;;1.97;;
5650;SDS011;40241;52.684;9.758;2022-08-19T13:06:36;1.90;;;1.80;;
5650;SDS011;40241;52.684;9.758;2022-08-19T13:09:02;1.73;;;1.63;;
5650;SDS011;40241;52.684;9.758;2022-08-19T13:11:28;2.13;;;2.03;;
5650;SDS011;40241;52.684;9.758;2022-08-19T13:13:57;2.40;;;1.60;;
5650;SDS011;40241;52.684;9.758;2022-08-19T13:16:23;2.13;;;2.03;;
5650;SDS011;40241;52.684;9.758;2022-08-19T13:18:49;1.93;;;1.83;;
5650;SDS011;40241;52.684;9.758;2022-08-19T13:21:18;1.77;;;1.67;;
5650;SDS011;40241;52.684;9.758;2022-08-19T13:23:45;1.30;;;1.30;;
5650;SDS011;40241;52.684;9.758;2022-08-19T13:26:11;1.60;;;1.50;;
5650;SDS011;40241;52.684;9.758;2022-08-19T13:28:38;1.50;;;1.40;;
5650;SDS011;40241;52.684;9.758;2022-08-19T13:31:24;1.70;;;1.60;;
5650;SDS011;40241;52.684;9.758;2022-08-19T13:34:10;1.63;;;1.53;;
5650;SDS011;40241;52.684;9.758;2022-08-19T13:36:36;1.80;;;1.67;;
5650;SDS011;40241;52.684;9.758;2022-08-19T13:39:03;1.97;;;1.87;;
5650;SDS011;40241;52.684;9.758;2022-08-19T13:41:29;2.30;;;2.10;;
5650;SDS011;40241;52.684;9.758;2022-08-19T13:43:55;2.10;;;2.00;;
5650;SDS011;40241;52.684;9.758;2022-08-19T13:46:20;1.67;;;1.57;;
5650;SDS011;40241;52.684;9.758;2022-08-19T13:48:46;1.90;;;1.80;;
5650;SDS011;40241;52.684;9.758;2022-08-19T13:51:13;2.20;;;2.10;;
5650;SDS011;40241;52.684;9.758;2022-08-19T13:53:41;1.50;;;1.40;;
5650;SDS011;40241;52.684;9.758;2022-08-19T13:56:12;1.70;;;1.60;;
5650;SDS011;40241;52.684;9.758;2022-08-19T13:58:39;1.40;;;1.40;;
5650;SDS011;40241;52.684;9.758;2022-08-19T14:01:05;1.50;;;1.40;;
5650;SDS011;40241;52.684;9.758;2022-08-19T14:03:31;1.57;;;1.47;;
5650;SDS011;40241;52.684;9.758;2022-08-19T14:05:58;1.50;;;1.40;;
5650;SDS011;40241;52.684;9.758;2022-08-19T14:08:23;2.53;;;1.70;;
5650;SDS011;40241;52.684;9.758;2022-08-19T14:10:49;1.30;;;1.30;;
5650;SDS011;40241;52.684;9.758;2022-08-19T14:13:15;1.83;;;1.73;;
5650;SDS011;40241;52.684;9.758;2022-08-19T14:15:43;1.60;;;1.50;;
5650;SDS011;40241;52.684;9.758;2022-08-19T14:18:09;1.60;;;1.50;;
5650;SDS011;40241;52.684;9.758;2022-08-19T14:20:35;1.60;;;1.50;;
5650;SDS011;40241;52.684;9.758;2022-08-19T14:23:01;1.23;;;1.23;;
5650;SDS011;40241;52.684;9.758;2022-08-19T14:25:28;1.47;;;1.37;;
5650;SDS011;40241;52.684;9.758;2022-08-19T14:27:55;1.47;;;1.37;;
5650;SDS011;40241;52.684;9.758;2022-08-19T14:30:24;1.40;;;1.30;;
5650;SDS011;40241;52.684;9.758;2022-08-19T14:32:52;1.00;;;1.00;;
5650;SDS011;40241;52.684;9.758;2022-08-19T14:35:19;1.27;;;1.23;;
5650;SDS011;40241;52.684;9.758;2022-08-19T14:37:46;1.40;;;1.30;;
5650;SDS011;40241;52.684;9.758;2022-08-19T14:40:12;2.20;;;1.20;;
5650;SDS011;40241;52.684;9.758;2022-08-19T14:42:39;1.30;;;1.30;;
5650;SDS011;40241;52.684;9.758;2022-08-19T14:45:07;1.40;;;1.30;;
5650;SDS011;40241;52.684;9.758;2022-08-19T14:47:33;1.47;;;1.37;;
5650;SDS011;40241;52.684;9.758;2022-08-19T14:49:58;1.87;;;1.77;;
5650;SDS011;40241;52.684;9.758;2022-08-19T14:52:23;1.13;;;1.03;;
5650;SDS011;40241;52.684;9.758;2022-08-19T14:54:49;1.33;;;1.23;;
5650;SDS011;40241;52.684;9.758;2022-08-19T14:57:15;1.13;;;1.03;;
5650;SDS011;40241;52.684;9.758;2022-08-19T14:59:41;1.20;;;1.20;;
5650;SDS011;40241;52.684;9.758;2022-08-19T15:02:07;1.60;;;1.50;;
5650;SDS011;40241;52.684;9.758;2022-08-19T15:04:32;1.33;;;1.33;;
5650;SDS011;40241;52.684;9.758;2022-08-19T15:06:57;1.43;;;1.33;;
5650;SDS011;40241;52.684;9.758;2022-08-19T15:09:23;1.40;;;1.40;;
5650;SDS011;40241;52.684;9.758;2022-08-19T15:11:48;1.30;;;1.20;;